sensor_id;sensor_type;location;lat;lon;timestamp;temperature;humidity
6556;DHT22;3311;48.32423000;14.29074500;2022-08-03T04:44:48;24.30;67.30
6556;DHT22;3311;48.32423000;14.29074500;2022-08-03T04:47:16;24.20;67.50
6556;DHT22;3311;48.32423000;14.29074500;2022-08-03T04:49:43;24.20;67.40
6556;DHT22;3311;48.32423000;14.29074500;2022-08-03T04:52:11;24.20;67.60
6556;DHT22;3311;48.32423000;14.29074500;2022-08-03T04:54:40;24.30;67.60
6556;DHT22;3311;48.32423000;14.29074500;2022-08-03T04:57:08;24.30;67.60
6556;DHT22;3311;48.32423000;14.29074500;2022-08-03T04:59:36;24.30;68.10
6556;DHT22;3311;48.32423000;14.29074500;2022-08-03T05:02:06;24.00;67.90
6556;DHT22;3311;48.32423000;14.29074500;2022-08-03T05:04:33;24.00;67.90
6556;DHT22;3311;48.32423000;14.29074500;2022-08-03T05:07:00;23.90;67.40
6556;DHT22;3311;48.32423000;14.29074500;2022-08-03T05:09:28;24.00;67.80
6556;DHT22;3311;48.32423000;14.29074500;2022-08-03T05:11:55;24.10;67.30
6556;DHT22;3311;48.32423000;14.29074500;2022-08-03T05:14:22;24.30;67.20
6556;DHT22;3311;48.32423000;14.29074500;2022-08-03T05:16:50;24.40;67.50
6556;DHT22;3311;48.32423000;14.29074500;2022-08-03T05:19:18;24.50;67.40
6556;DHT22;3311;48.32423000;14.29074500;2022-08-03T05:21:45;24.60;67.00
6556;DHT22;3311;48.32423000;14.29074500;2022-08-03T05:24:13;24.60;67.10
6556;DHT22;3311;48.32423000;14.29074500;2022-08-03T05:26:40;24.70;67.50
6556;DHT22;3311;48.32423000;14.29074500;2022-08-03T05:29:07;24.70;67.30
6556;DHT22;3311;48.32423000;14.29074500;2022-08-03T05:31:35;24.80;67.10
6556;DHT22;3311;48.32423000;14.29074500;2022-08-03T05:34:02;24.80;66.80
6556;DHT22;3311;48.32423000;14.29074500;2022-08-03T05:36:31;24.80;66.90
6556;DHT22;3311;48.32423000;14.29074500;2022-08-03T05:38:58;24.90;67.40
6556;DHT22;3311;48.32423000;14.29074500;2022-08-03T05:41:26;24.90;66.80
6556;DHT22;3311;48.32423000;14.29074500;2022-08-03T05:43:54;25.00;66.60
6556;DHT22;3311;48.32423000;14.29074500;2022-08-03T05:46:21;25.10;66.30
6556;DHT22;3311;48.32423000;14.29074500;2022-08-03T05:48:49;25.10;66.10
6556;DHT22;3311;48.32423000;14.29074500;2022-08-03T05:51:16;25.20;65.90
6556;DHT22;3311;48.32423000;14.29074500;2022-08-03T05:53:45;25.20;65.80
6556;DHT22;3311;48.32423000;14.29074500;2022-08-03T05:56:13;25.20;66.00
6556;DHT22;3311;48.32423000;14.29074500;2022-08-03T05:58:40;25.20;65.60
6556;DHT22;3311;48.32423000;14.29074500;2022-08-03T06:01:08;25.30;65.50
6556;DHT22;3311;48.32423000;14.29074500;2022-08-03T06:03:35;25.40;65.40
6556;DHT22;3311;48.32423000;14.29074500;2022-08-03T06:06:02;25.40;65.30
6556;DHT22;3311;48.32423000;14.29074500;2022-08-03T06:08:30;25.40;65.10
6556;DHT22;3311;48.32423000;14.29074500;2022-08-03T06:10:59;25.50;65.00
6556;DHT22;3311;48.32423000;14.29074500;2022-08-03T06:13:26;25.50;64.90
6556;DHT22;3311;48.32423000;14.29074500;2022-08-03T06:15:53;25.50;64.80
6556;DHT22;3311;48.32423000;14.29074500;2022-08-03T06:18:21;25.60;65.40
6556;DHT22;3311;48.32423000;14.29074500;2022-08-03T06:20:49;25.60;64.70
6556;DHT22;3311;48.32423000;14.29074500;2022-08-03T06:23:17;25.60;64.60
6556;DHT22;3311;48.32423000;14.29074500;2022-08-03T06:25:45;25.70;64.60
6556;DHT22;3311;48.32423000;14.29074500;2022-08-03T06:28:14;25.70;64.50
6556;DHT22;3311;48.32423000;14.29074500;2022-08-03T06:30:43;25.70;64.40
6556;DHT22;3311;48.32423000;14.29074500;2022-08-03T06:33:10;25.70;64.40
6556;DHT22;3311;48.32423000;14.29074500;2022-08-03T06:35:38;25.80;64.40
6556;DHT22;3311;48.32423000;14.29074500;2022-08-03T06:38:05;25.80;64.40
6556;DHT22;3311;48.32423000;14.29074500;2022-08-03T06:40:35;25.80;64.30
6556;DHT22;3311;48.32423000;14.29074500;2022-08-03T06:43:05;25.80;64.20
6556;DHT22;3311;48.32423000;14.29074500;2022-08-03T06:45:35;25.80;64.20
6556;DHT22;3311;48.32423000;14.29074500;2022-08-03T06:48:04;25.80;64.10
6556;DHT22;3311;48.32423000;14.29074500;2022-08-03T06:50:32;25.90;64.10
6556;DHT22;3311;48.32423000;14.29074500;2022-08-03T06:53:00;25.90;64.00
6556;DHT22;3311;48.32423000;14.29074500;2022-08-03T06:55:28;25.90;63.90
6556;DHT22;3311;48.32423000;14.29074500;2022-08-03T06:57:55;25.90;63.90
6556;DHT22;3311;48.32423000;14.29074500;2022-08-03T07:00:23;26.00;63.90
6556;DHT22;3311;48.32423000;14.29074500;2022-08-03T07:02:52;26.00;63.80
6556;DHT22;3311;48.32423000;14.29074500;2022-08-03T07:05:20;26.00;63.80
6556;DHT22;3311;48.32423000;14.29074500;2022-08-03T07:07:47;26.00;63.70
6556;DHT22;3311;48.32423000;14.29074500;2022-08-03T07:10:15;26.00;63.70
6556;DHT22;3311;48.32423000;14.29074500;2022-08-03T07:12:42;26.50;63.90
6556;DHT22;3311;48.32423000;14.29074500;2022-08-03T07:15:10;26.10;63.60
6556;DHT22;3311;48.32423000;14.29074500;2022-08-03T07:17:37;26.10;63.50
6556;DHT22;3311;48.32423000;14.29074500;2022-08-03T07:20:07;26.10;63.50
6556;DHT22;3311;48.32423000;14.29074500;2022-08-03T07:22:34;26.10;63.40
6556;DHT22;3311;48.32423000;14.29074500;2022-08-03T07:25:02;26.20;63.50
6556;DHT22;3311;48.32423000;14.29074500;2022-08-03T07:27:30;26.10;63.40
6556;DHT22;3311;48.32423000;14.29074500;2022-08-03T07:29:58;26.20;63.40
6556;DHT22;3311;48.32423000;14.29074500;2022-08-03T07:32:26;26.20;63.30
6556;DHT22;3311;48.32423000;14.29074500;2022-08-03T07:34:56;26.20;63.90
6556;DHT22;3311;48.32423000;14.29074500;2022-08-03T07:37:24;26.20;63.30
6556;DHT22;3311;48.32423000;14.29074500;2022-08-03T07:39:52;26.20;63.20
6556;DHT22;3311;48.32423000;14.29074500;2022-08-03T07:42:19;26.20;63.20
6556;DHT22;3311;48.32423000;14.29074500;2022-08-03T07:44:48;26.20;63.10
6556;DHT22;3311;48.32423000;14.29074500;2022-08-03T07:47:17;26.30;63.20
6556;DHT22;3311;48.32423000;14.29074500;2022-08-03T07:49:45;26.30;63.20
6556;DHT22;3311;48.32423000;14.29074500;2022-08-03T07:52:12;26.30;63.20
6556;DHT22;3311;48.32423000;14.29074500;2022-08-03T07:54:58;26.30;63.20
6556;DHT22;3311;48.32423000;14.29074500;2022-08-03T07:57:25;26.30;63.10
6556;DHT22;3311;48.32423000;14.29074500;2022-08-03T07:59:53;26.30;63.10
6556;DHT22;3311;48.32423000;14.29074500;2022-08-03T08:02:20;26.30;63.10
6556;DHT22;3311;48.32423000;14.29074500;2022-08-03T08:04:47;26.40;63.10
6556;DHT22;3311;48.32423000;14.29074500;2022-08-03T08:07:15;26.40;63.10
6556;DHT22;3311;48.32423000;14.29074500;2022-08-03T08:09:42;26.30;63.00
6556;DHT22;3311;48.32423000;14.29074500;2022-08-03T08:12:11;26.40;63.70
6556;DHT22;3311;48.32423000;14.29074500;2022-08-03T08:14:38;26.40;63.10
6556;DHT22;3311;48.32423000;14.29074500;2022-08-03T08:17:06;26.40;63.10
6556;DHT22;3311;48.32423000;14.29074500;2022-08-03T08:19:34;26.40;63.00
6556;DHT22;3311;48.32423000;14.29074500;2022-08-03T08:22:01;26.40;63.30
6556;DHT22;3311;48.32423000;14.29074500;2022-08-03T08:24:28;26.40;63.00
6556;DHT22;3311;48.32423000;14.29074500;2022-08-03T08:26:56;26.40;63.00
6556;DHT22;3311;48.32423000;14.29074500;2022-08-03T08:29:25;26.40;63.00
6556;DHT22;3311;48.32423000;14.29074500;2022-08-03T08:31:52;26.40;62.90
6556;DHT22;3311;48.32423000;14.29074500;2022-08-03T08:34:19;26.40;63.00
6556;DHT22;3311;48.32423000;14.29074500;2022-08-03T08:36:46;26.40;62.90
6556;DHT22;3311;48.32423000;14.29074500;2022-08-03T08:39:14;26.40;62.90
6556;DHT22;3311;48.32423000;14.29074500;2022-08-03T08:41:41;26.40;62.90
6556;DHT22;3311;48.32423000;14.29074500;2022-08-03T08:44:08;26.40;63.00
6556;DHT22;3311;48.32423000;14.29074500;2022-08-03T08:46:38;26.50;63.00
6556;DHT22;3311;48.32423000;14.29074500;2022-08-03T08:49:08;26.50;62.90
6556;DHT22;3311;48.32423000;14.29074500;2022-08-03T08:51:39;26.40;62.90
6556;DHT22;3311;48.32423000;14.29074500;2022-08-03T08:54:09;26.40;62.80
6556;DHT22;3311;48.32423000;14.29074500;2022-08-03T08:56:37;26.50;62.90
6556;DHT22;3311;48.32423000;14.29074500;2022-08-03T08:59:05;26.40;62.90
6556;DHT22;3311;48.32423000;14.29074500;2022-08-03T09:01:33;26.50;62.90
6556;DHT22;3311;48.32423000;14.29074500;2022-08-03T09:04:05;26.40;62.90
6556;DHT22;3311;48.32423000;14.29074500;2022-08-03T09:06:34;28.10;64.20
6556;DHT22;3311;48.32423000;14.29074500;2022-08-03T09:09:02;26.40;62.90
6556;DHT22;3311;48.32423000;14.29074500;2022-08-03T09:11:29;26.50;63.10
6556;DHT22;3311;48.32423000;14.29074500;2022-08-03T09:13:58;26.50;63.10
6556;DHT22;3311;48.32423000;14.29074500;2022-08-03T09:16:25;26.40;63.00
6556;DHT22;3311;48.32423000;14.29074500;2022-08-03T09:18:53;26.40;63.10
6556;DHT22;3311;48.32423000;14.29074500;2022-08-03T09:21:24;26.40;63.10
6556;DHT22;3311;48.32423000;14.29074500;2022-08-03T09:23:53;26.40;63.20
6556;DHT22;3311;48.32423000;14.29074500;2022-08-03T09:26:22;26.40;63.20
6556;DHT22;3311;48.32423000;14.29074500;2022-08-03T09:28:59;26.40;63.20
6556;DHT22;3311;48.32423000;14.29074500;2022-08-03T09:31:31;26.40;63.20
6556;DHT22;3311;48.32423000;14.29074500;2022-08-03T09:34:01;26.30;63.20
6556;DHT22;3311;48.32423000;14.29074500;2022-08-03T09:36:39;26.30;63.30
6556;DHT22;3311;48.32423000;14.29074500;2022-08-03T09:39:09;26.30;63.30
6556;DHT22;3311;48.32423000;14.29074500;2022-08-03T09:41:38;26.30;64.00
6556;DHT22;3311;48.32423000;14.29074500;2022-08-03T09:44:05;26.30;63.40
6556;DHT22;3311;48.32423000;14.29074500;2022-08-03T09:46:47;26.30;63.40
6556;DHT22;3311;48.32423000;14.29074500;2022-08-03T09:49:15;26.30;63.50
6556;DHT22;3311;48.32423000;14.29074500;2022-08-03T09:51:44;26.30;63.60
6556;DHT22;3311;48.32423000;14.29074500;2022-08-03T09:54:12;26.20;63.50
6556;DHT22;3311;48.32423000;14.29074500;2022-08-03T09:56:41;26.30;63.60
6556;DHT22;3311;48.32423000;14.29074500;2022-08-03T09:59:10;26.20;63.50
6556;DHT22;3311;48.32423000;14.29074500;2022-08-03T10:01:38;26.20;63.60
6556;DHT22;3311;48.32423000;14.29074500;2022-08-03T10:04:16;26.20;63.70
6556;DHT22;3311;48.32423000;14.29074500;2022-08-03T10:07:00;26.20;63.60
6556;DHT22;3311;48.32423000;14.29074500;2022-08-03T10:09:28;26.20;63.60
6556;DHT22;3311;48.32423000;14.29074500;2022-08-03T10:11:56;26.20;63.60
6556;DHT22;3311;48.32423000;14.29074500;2022-08-03T10:14:25;26.20;63.70
6556;DHT22;3311;48.32423000;14.29074500;2022-08-03T10:16:56;26.20;63.70
6556;DHT22;3311;48.32423000;14.29074500;2022-08-03T10:19:23;26.20;63.70
6556;DHT22;3311;48.32423000;14.29074500;2022-08-03T10:21:55;26.10;63.70
6556;DHT22;3311;48.32423000;14.29074500;2022-08-03T10:24:25;26.20;63.70
6556;DHT22;3311;48.32423000;14.29074500;2022-08-03T10:26:58;26.10;63.70
6556;DHT22;3311;48.32423000;14.29074500;2022-08-03T10:29:28;26.10;63.70
6556;DHT22;3311;48.32423000;14.29074500;2022-08-03T10:31:58;26.10;63.80
6556;DHT22;3311;48.32423000;14.29074500;2022-08-03T10:34:33;26.10;63.80
6556;DHT22;3311;48.32423000;14.29074500;2022-08-03T10:37:04;26.10;63.80
6556;DHT22;3311;48.32423000;14.29074500;2022-08-03T10:39:33;26.10;63.80
6556;DHT22;3311;48.32423000;14.29074500;2022-08-03T10:42:01;26.10;63.90
6556;DHT22;3311;48.32423000;14.29074500;2022-08-03T10:44:35;26.10;63.90
6556;DHT22;3311;48.32423000;14.29074500;2022-08-03T10:47:03;26.00;63.80
6556;DHT22;3311;48.32423000;14.29074500;2022-08-03T10:49:32;26.00;63.90
6556;DHT22;3311;48.32423000;14.29074500;2022-08-03T10:52:02;26.00;63.90
6556;DHT22;3311;48.32423000;14.29074500;2022-08-03T10:54:38;26.00;63.90
6556;DHT22;3311;48.32423000;14.29074500;2022-08-03T10:57:43;26.00;63.90
6556;DHT22;3311;48.32423000;14.29074500;2022-08-03T11:00:11;26.00;63.90
6556;DHT22;3311;48.32423000;14.29074500;2022-08-03T11:03:04;26.00;63.90
6556;DHT22;3311;48.32423000;14.29074500;2022-08-03T11:05:35;26.00;63.90
6556;DHT22;3311;48.32423000;14.29074500;2022-08-03T11:08:27;26.00;63.90
6556;DHT22;3311;48.32423000;14.29074500;2022-08-03T11:10:57;26.00;63.90
6556;DHT22;3311;48.32423000;14.29074500;2022-08-03T11:13:27;26.00;63.90
6556;DHT22;3311;48.32423000;14.29074500;2022-08-03T11:15:59;26.00;63.90
6556;DHT22;3311;48.32423000;14.29074500;2022-08-03T11:18:27;26.00;63.90
6556;DHT22;3311;48.32423000;14.29074500;2022-08-03T11:20:56;26.00;63.90
6556;DHT22;3311;48.32423000;14.29074500;2022-08-03T11:23:45;25.90;63.80
6556;DHT22;3311;48.32423000;14.29074500;2022-08-03T11:26:16;26.00;63.90
6556;DHT22;3311;48.32423000;14.29074500;2022-08-03T11:28:45;26.00;63.80
6556;DHT22;3311;48.32423000;14.29074500;2022-08-03T11:34:22;26.00;63.80
6556;DHT22;3311;48.32423000;14.29074500;2022-08-03T11:37:18;26.00;63.80
6556;DHT22;3311;48.32423000;14.29074500;2022-08-03T11:39:49;25.90;63.70
6556;DHT22;3311;48.32423000;14.29074500;2022-08-03T11:42:39;25.90;63.70
6556;DHT22;3311;48.32423000;14.29074500;2022-08-03T11:45:09;25.90;63.60
6556;DHT22;3311;48.32423000;14.29074500;2022-08-03T11:47:38;26.00;63.80
6556;DHT22;3311;48.32423000;14.29074500;2022-08-03T11:50:07;25.90;63.70
6556;DHT22;3311;48.32423000;14.29074500;2022-08-03T11:52:37;25.90;63.50
6556;DHT22;3311;48.32423000;14.29074500;2022-08-03T11:55:24;25.90;63.70
6556;DHT22;3311;48.32423000;14.29074500;2022-08-03T11:57:58;25.90;63.70
6556;DHT22;3311;48.32423000;14.29074500;2022-08-03T12:00:27;25.90;63.60
6556;DHT22;3311;48.32423000;14.29074500;2022-08-03T12:03:03;25.90;63.60
6556;DHT22;3311;48.32423000;14.29074500;2022-08-03T12:05:39;25.90;63.50
6556;DHT22;3311;48.32423000;14.29074500;2022-08-03T12:08:08;25.90;63.50
6556;DHT22;3311;48.32423000;14.29074500;2022-08-03T12:10:38;25.90;63.40
6556;DHT22;3311;48.32423000;14.29074500;2022-08-03T12:13:06;25.90;63.50
6556;DHT22;3311;48.32423000;14.29074500;2022-08-03T12:15:35;25.90;63.50
6556;DHT22;3311;48.32423000;14.29074500;2022-08-03T12:18:16;25.90;63.50
6556;DHT22;3311;48.32423000;14.29074500;2022-08-03T12:20:45;25.90;63.40
6556;DHT22;3311;48.32423000;14.29074500;2022-08-03T12:23:13;25.90;63.40
6556;DHT22;3311;48.32423000;14.29074500;2022-08-03T12:25:43;25.90;63.30
6556;DHT22;3311;48.32423000;14.29074500;2022-08-03T12:28:14;25.90;63.30
6556;DHT22;3311;48.32423000;14.29074500;2022-08-03T12:30:48;25.90;63.30
6556;DHT22;3311;48.32423000;14.29074500;2022-08-03T12:33:19;25.90;63.20
6556;DHT22;3311;48.32423000;14.29074500;2022-08-03T12:35:50;25.90;63.20
6556;DHT22;3311;48.32423000;14.29074500;2022-08-03T12:38:21;25.90;63.10
6556;DHT22;3311;48.32423000;14.29074500;2022-08-03T12:41:02;25.90;63.10
6556;DHT22;3311;48.32423000;14.29074500;2022-08-03T12:43:30;25.90;63.00
6556;DHT22;3311;48.32423000;14.29074500;2022-08-03T12:46:12;25.90;63.00
6556;DHT22;3311;48.32423000;14.29074500;2022-08-03T12:49:04;25.90;63.00
6556;DHT22;3311;48.32423000;14.29074500;2022-08-03T12:51:33;25.90;63.00
6556;DHT22;3311;48.32423000;14.29074500;2022-08-03T12:54:01;25.90;63.00
6556;DHT22;3311;48.32423000;14.29074500;2022-08-03T12:56:30;25.90;63.00
6556;DHT22;3311;48.32423000;14.29074500;2022-08-03T12:58:57;25.90;63.00
6556;DHT22;3311;48.32423000;14.29074500;2022-08-03T13:01:25;25.90;63.00
6556;DHT22;3311;48.32423000;14.29074500;2022-08-03T13:03:54;25.90;63.00
6556;DHT22;3311;48.32423000;14.29074500;2022-08-03T13:06:22;25.90;63.00
6556;DHT22;3311;48.32423000;14.29074500;2022-08-03T13:09:01;25.90;62.90
6556;DHT22;3311;48.32423000;14.29074500;2022-08-03T13:11:31;25.90;63.00
6556;DHT22;3311;48.32423000;14.29074500;2022-08-03T13:13:59;25.90;62.80
6556;DHT22;3311;48.32423000;14.29074500;2022-08-03T13:16:27;25.90;62.80
6556;DHT22;3311;48.32423000;14.29074500;2022-08-03T13:18:54;25.90;62.80
6556;DHT22;3311;48.32423000;14.29074500;2022-08-03T13:21:22;25.90;62.70
6556;DHT22;3311;48.32423000;14.29074500;2022-08-03T13:23:49;25.90;62.80
6556;DHT22;3311;48.32423000;14.29074500;2022-08-03T13:26:16;25.90;62.70
6556;DHT22;3311;48.32423000;14.29074500;2022-08-03T13:28:45;25.90;62.60
6556;DHT22;3311;48.32423000;14.29074500;2022-08-03T13:31:12;25.80;62.40
6556;DHT22;3311;48.32423000;14.29074500;2022-08-03T13:33:39;25.90;62.60
6556;DHT22;3311;48.32423000;14.29074500;2022-08-03T13:36:07;25.90;62.50
6556;DHT22;3311;48.32423000;14.29074500;2022-08-03T13:38:34;25.90;62.40
6556;DHT22;3311;48.32423000;14.29074500;2022-08-03T13:41:02;25.90;62.40
6556;DHT22;3311;48.32423000;14.29074500;2022-08-03T13:43:29;25.90;62.30
6556;DHT22;3311;48.32423000;14.29074500;2022-08-03T13:45:58;25.80;62.20
6556;DHT22;3311;48.32423000;14.29074500;2022-08-03T13:48:26;25.90;62.10
6556;DHT22;3311;48.32423000;14.29074500;2022-08-03T13:50:53;25.90;62.20
6556;DHT22;3311;48.32423000;14.29074500;2022-08-03T13:53:20;25.90;62.20
6556;DHT22;3311;48.32423000;14.29074500;2022-08-03T13:55:47;25.90;62.10
6556;DHT22;3311;48.32423000;14.29074500;2022-08-03T13:58:15;25.90;62.00
6556;DHT22;3311;48.32423000;14.29074500;2022-08-03T14:00:42;25.80;61.90
6556;DHT22;3311;48.32423000;14.29074500;2022-08-03T14:03:11;25.90;61.90
6556;DHT22;3311;48.32423000;14.29074500;2022-08-03T14:05:38;25.80;61.80
6556;DHT22;3311;48.32423000;14.29074500;2022-08-03T14:08:06;25.90;61.70
6556;DHT22;3311;48.32423000;14.29074500;2022-08-03T14:10:36;25.80;61.40
6556;DHT22;3311;48.32423000;14.29074500;2022-08-03T14:13:04;25.90;61.30
6556;DHT22;3311;48.32423000;14.29074500;2022-08-03T14:15:31;25.90;61.30
6556;DHT22;3311;48.32423000;14.29074500;2022-08-03T14:17:59;25.90;61.10
6556;DHT22;3311;48.32423000;14.29074500;2022-08-03T14:20:28;25.90;61.00
6556;DHT22;3311;48.32423000;14.29074500;2022-08-03T14:22:55;25.90;61.00
6556;DHT22;3311;48.32423000;14.29074500;2022-08-03T14:25:22;25.80;60.70
6556;DHT22;3311;48.32423000;14.29074500;2022-08-03T14:27:49;25.90;60.60
6556;DHT22;3311;48.32423000;14.29074500;2022-08-03T14:30:17;25.80;60.40
6556;DHT22;3311;48.32423000;14.29074500;2022-08-03T14:32:44;25.80;60.30
6556;DHT22;3311;48.32423000;14.29074500;2022-08-03T14:35:12;25.90;60.40
6556;DHT22;3311;48.32423000;14.29074500;2022-08-03T14:37:41;25.80;60.50
6556;DHT22;3311;48.32423000;14.29074500;2022-08-03T14:40:08;25.90;61.00
6556;DHT22;3311;48.32423000;14.29074500;2022-08-03T14:42:36;25.80;60.80
6556;DHT22;3311;48.32423000;14.29074500;2022-08-03T14:45:04;25.90;60.20
6556;DHT22;3311;48.32423000;14.29074500;2022-08-03T14:47:31;25.90;60.00
6556;DHT22;3311;48.32423000;14.29074500;2022-08-03T14:49:59;25.90;59.70
6556;DHT22;3311;48.32423000;14.29074500;2022-08-03T14:52:29;25.90;59.50
6556;DHT22;3311;48.32423000;14.29074500;2022-08-03T14:54:58;25.90;59.30
6556;DHT22;3311;48.32423000;14.29074500;2022-08-03T14:57:25;25.90;59.10
6556;DHT22;3311;48.32423000;14.29074500;2022-08-03T14:59:53;25.90;59.00
6556;DHT22;3311;48.32423000;14.29074500;2022-08-03T15:02:20;25.80;59.00
6556;DHT22;3311;48.32423000;14.29074500;2022-08-03T15:04:48;25.80;58.90
6556;DHT22;3311;48.32423000;14.29074500;2022-08-03T15:07:15;25.80;58.70
6556;DHT22;3311;48.32423000;14.29074500;2022-08-03T15:09:42;25.80;59.20
6556;DHT22;3311;48.32423000;14.29074500;2022-08-03T15:12:11;25.80;58.60
6556;DHT22;3311;48.32423000;14.29074500;2022-08-03T15:14:38;25.80;58.30
6556;DHT22;3311;48.32423000;14.29074500;2022-08-03T15:17:06;25.80;58.30
6556;DHT22;3311;48.32423000;14.29074500;2022-08-03T15:19:34;25.80;58.00
6556;DHT22;3311;48.32423000;14.29074500;2022-08-03T15:22:02;25.80;58.00
6556;DHT22;3311;48.32423000;14.29074500;2022-08-03T15:24:29;25.90;57.90
6556;DHT22;3311;48.32423000;14.29074500;2022-08-03T15:26:56;25.80;57.80
6556;DHT22;3311;48.32423000;14.29074500;2022-08-03T15:29:25;25.80;57.80
6556;DHT22;3311;48.32423000;14.29074500;2022-08-03T15:31:52;25.80;57.70
6556;DHT22;3311;48.32423000;14.29074500;2022-08-03T15:34:20;25.90;57.80
6556;DHT22;3311;48.32423000;14.29074500;2022-08-03T15:36:47;25.90;57.70
6556;DHT22;3311;48.32423000;14.29074500;2022-08-03T15:39:15;25.80;57.60
6556;DHT22;3311;48.32423000;14.29074500;2022-08-03T15:41:42;25.80;57.50
6556;DHT22;3311;48.32423000;14.29074500;2022-08-03T15:44:09;25.80;57.50
6556;DHT22;3311;48.32423000;14.29074500;2022-08-03T15:46:38;25.80;57.40
6556;DHT22;3311;48.32423000;14.29074500;2022-08-03T15:49:05;25.80;57.40
6556;DHT22;3311;48.32423000;14.29074500;2022-08-03T15:51:33;25.80;57.40
6556;DHT22;3311;48.32423000;14.29074500;2022-08-03T15:54:01;25.80;57.40
6556;DHT22;3311;48.32423000;14.29074500;2022-08-03T15:56:29;25.80;57.40
6556;DHT22;3311;48.32423000;14.29074500;2022-08-03T15:58:56;25.80;57.30
6556;DHT22;3311;48.32423000;14.29074500;2022-08-03T16:01:24;25.80;57.30
6556;DHT22;3311;48.32423000;14.29074500;2022-08-03T16:03:54;25.80;57.20
6556;DHT22;3311;48.32423000;14.29074500;2022-08-03T16:06:22;25.80;57.30
6556;DHT22;3311;48.32423000;14.29074500;2022-08-03T16:08:49;25.80;57.30
6556;DHT22;3311;48.32423000;14.29074500;2022-08-03T16:11:16;25.80;57.30
6556;DHT22;3311;48.32423000;14.29074500;2022-08-03T16:13:44;25.80;57.30
6556;DHT22;3311;48.32423000;14.29074500;2022-08-03T16:16:11;25.80;57.30
6556;DHT22;3311;48.32423000;14.29074500;2022-08-03T16:18:39;25.80;57.50
6556;DHT22;3311;48.32423000;14.29074500;2022-08-03T16:21:08;25.80;57.40
6556;DHT22;3311;48.32423000;14.29074500;2022-08-03T16:23:35;25.80;57.50
6556;DHT22;3311;48.32423000;14.29074500;2022-08-03T16:26:04;25.80;57.60
6556;DHT22;3311;48.32423000;14.29074500;2022-08-03T16:28:31;25.80;57.70
6556;DHT22;3311;48.32423000;14.29074500;2022-08-03T16:31:03;25.80;57.70
6556;DHT22;3311;48.32423000;14.29074500;2022-08-03T16:33:31;25.80;57.90
6556;DHT22;3311;48.32423000;14.29074500;2022-08-03T16:35:59;25.80;57.90
6556;DHT22;3311;48.32423000;14.29074500;2022-08-03T16:38:27;25.80;57.90
6556;DHT22;3311;48.32423000;14.29074500;2022-08-03T16:40:55;25.80;57.90
6556;DHT22;3311;48.32423000;14.29074500;2022-08-03T16:43:22;25.80;58.10
6556;DHT22;3311;48.32423000;14.29074500;2022-08-03T16:45:50;25.80;58.10
6556;DHT22;3311;48.32423000;14.29074500;2022-08-03T16:48:17;25.80;58.20
6556;DHT22;3311;48.32423000;14.29074500;2022-08-03T16:50:45;25.80;58.30
6556;DHT22;3311;48.32423000;14.29074500;2022-08-03T16:53:12;25.80;58.30
6556;DHT22;3311;48.32423000;14.29074500;2022-08-03T16:55:41;25.80;58.20
6556;DHT22;3311;48.32423000;14.29074500;2022-08-03T16:58:09;25.80;58.30
6556;DHT22;3311;48.32423000;14.29074500;2022-08-03T17:00:36;25.80;58.30
6556;DHT22;3311;48.32423000;14.29074500;2022-08-03T17:03:04;25.80;58.30
6556;DHT22;3311;48.32423000;14.29074500;2022-08-03T17:05:33;25.80;58.40
6556;DHT22;3311;48.32423000;14.29074500;2022-08-03T17:08:00;25.80;58.40
6556;DHT22;3311;48.32423000;14.29074500;2022-08-03T17:10:28;25.80;58.30
6556;DHT22;3311;48.32423000;14.29074500;2022-08-03T17:12:57;25.80;58.40
6556;DHT22;3311;48.32423000;14.29074500;2022-08-03T17:15:24;25.80;58.40
6556;DHT22;3311;48.32423000;14.29074500;2022-08-03T17:17:59;25.80;58.40
6556;DHT22;3311;48.32423000;14.29074500;2022-08-03T17:20:31;25.80;58.40
6556;DHT22;3311;48.32423000;14.29074500;2022-08-03T17:23:05;25.80;58.40
6556;DHT22;3311;48.32423000;14.29074500;2022-08-03T17:25:35;25.80;58.50
6556;DHT22;3311;48.32423000;14.29074500;2022-08-03T17:28:05;25.80;58.40
6556;DHT22;3311;48.32423000;14.29074500;2022-08-03T17:30:34;25.80;58.50
6556;DHT22;3311;48.32423000;14.29074500;2022-08-03T17:33:19;25.80;58.40
6556;DHT22;3311;48.32423000;14.29074500;2022-08-03T17:35:47;25.80;58.50
6556;DHT22;3311;48.32423000;14.29074500;2022-08-03T17:38:20;25.80;58.50
6556;DHT22;3311;48.32423000;14.29074500;2022-08-03T17:40:48;25.80;58.50
6556;DHT22;3311;48.32423000;14.29074500;2022-08-03T17:43:17;25.80;58.60
6556;DHT22;3311;48.32423000;14.29074500;2022-08-03T17:45:45;25.80;58.70
6556;DHT22;3311;48.32423000;14.29074500;2022-08-03T17:48:12;25.80;58.70
6556;DHT22;3311;48.32423000;14.29074500;2022-08-03T17:50:44;25.80;58.70
6556;DHT22;3311;48.32423000;14.29074500;2022-08-03T17:53:15;25.80;58.80
6556;DHT22;3311;48.32423000;14.29074500;2022-08-03T17:55:50;25.80;58.80
6556;DHT22;3311;48.32423000;14.29074500;2022-08-03T17:58:30;25.80;59.00
6556;DHT22;3311;48.32423000;14.29074500;2022-08-03T18:01:03;25.80;59.10
6556;DHT22;3311;48.32423000;14.29074500;2022-08-03T18:03:50;25.80;59.70
6556;DHT22;3311;48.32423000;14.29074500;2022-08-03T18:06:20;25.80;59.30
6556;DHT22;3311;48.32423000;14.29074500;2022-08-03T18:08:50;25.80;59.50
6556;DHT22;3311;48.32423000;14.29074500;2022-08-03T18:11:22;25.80;59.50
6556;DHT22;3311;48.32423000;14.29074500;2022-08-03T18:13:57;25.80;59.90
6556;DHT22;3311;48.32423000;14.29074500;2022-08-03T18:16:29;25.80;60.40
6556;DHT22;3311;48.32423000;14.29074500;2022-08-03T18:18:59;25.80;61.00
6556;DHT22;3311;48.32423000;14.29074500;2022-08-03T18:21:26;25.80;61.10
6556;DHT22;3311;48.32423000;14.29074500;2022-08-03T18:23:54;25.70;61.00
6556;DHT22;3311;48.32423000;14.29074500;2022-08-03T18:26:23;26.00;61.50
6556;DHT22;3311;48.32423000;14.29074500;2022-08-03T18:28:53;25.70;61.20
6556;DHT22;3311;48.32423000;14.29074500;2022-08-03T18:31:21;25.70;61.20
6556;DHT22;3311;48.32423000;14.29074500;2022-08-03T18:33:49;25.70;61.10